PWSweather.com
Personal Weather Stations
Station Observations
PITCARMI1
La Serra, CarmignanoIT 59015

La SerraCarmignanoIT 59015

Lat: 43.804429, Lon: 11.027222

Elevation: 525

Station Type: Davis Vantage Vue

http://www.meteocarmignano.it

High Low Average
Temperature 69.9°F21.1°F 54.8°F12.7°F 60.0°F15.6°F
Dew Point 58.7°F14.8°F 51.9°F11.1°F 55.2°F12.9°F
Winds 5.8 mph SW9.3 mph SW Calm Calm 0.7 mph 1.1 mph
Wind Gusts 8.1 mph13.0 mph -- 1.4 mph2.3 mph
Humidity 94% 62% 85%
Pressure 30.00 in1015.90 in 29.84 in1010.50 in -
Precipitation 0.31 in7.90 in - -
Hour Temp Dew Point Humidity Winds Wind Gusts Pressure Precip Precip Rate Daily Precip Total
12:00 AM 58.2°F14.6°C 54.3°F12.4°C 87% 3.5 mph SW5.6 kmh SW 6.9 mph11.1 kmh 30.00 in1015.9 mb - 0.00 in0.0 mm 0.00 in0.0 mm
12:30 AM 57.3°F14.1°C 53.5°F11.9°C 87% 2.3 mph ENE3.7 kmh ENE 2.3 mph3.7 kmh 29.99 in1015.6 mb - 0.00 in0.0 mm 0.00 in0.0 mm
01:00 AM 56.6°F13.7°C 53.1°F11.7°C 88% Calm Calm -- 29.98 in1015.2 mb - 0.00 in0.0 mm 0.00 in0.0 mm
01:30 AM 56.3°F13.5°C 53.1°F11.7°C 89% 1.2 mph ENE1.9 kmh ENE 1.2 mph1.9 kmh 29.98 in1015.2 mb - 0.00 in0.0 mm 0.00 in0.0 mm
02:00 AM 55.5°F13.1°C 52.6°F11.4°C 90% Calm Calm -- 29.97 in1014.9 mb - 0.00 in0.0 mm 0.00 in0.0 mm
02:30 AM 54.8°F12.7°C 51.9°F11.1°C 90% Calm Calm -- 29.97 in1014.9 mb - 0.00 in0.0 mm 0.00 in0.0 mm
03:00 AM 55.2°F12.9°C 52.9°F11.6°C 92% Calm Calm 1.2 mph1.9 kmh 29.97 in1014.9 mb - 0.00 in0.0 mm 0.00 in0.0 mm
03:30 AM 55.7°F13.2°C 53.1°F11.7°C 91% Calm Calm -- 29.96 in1014.6 mb - 0.00 in0.0 mm 0.00 in0.0 mm
04:00 AM 55.7°F13.2°C 52.8°F11.6°C 90% 1.2 mph SW1.9 kmh SW 1.2 mph1.9 kmh 29.96 in1014.6 mb - 0.00 in0.0 mm 0.00 in0.0 mm
04:30 AM 55.6°F13.1°C 52.8°F11.6°C 90% 1.2 mph SW1.9 kmh SW 1.2 mph1.9 kmh 29.96 in1014.6 mb - 0.00 in0.0 mm 0.00 in0.0 mm
05:00 AM 55.8°F13.2°C 52.9°F11.6°C 90% Calm Calm -- 29.95 in1014.2 mb - 0.00 in0.0 mm 0.00 in0.0 mm
05:30 AM 55.1°F12.8°C 52.2°F11.2°C 90% Calm Calm -- 29.95 in1014.2 mb - 0.00 in0.0 mm 0.00 in0.0 mm
06:00 AM 55.1°F12.8°C 52.8°F11.6°C 92% Calm Calm -- 29.95 in1014.2 mb - 0.00 in0.0 mm 0.00 in0.0 mm
06:30 AM 55.5°F13.1°C 52.9°F11.6°C 91% Calm Calm 1.2 mph1.9 kmh 29.96 in1014.6 mb - 0.00 in0.0 mm 0.00 in0.0 mm
07:00 AM 56.7°F13.7°C 54.1°F12.3°C 91% Calm Calm -- 29.96 in1014.6 mb - 0.00 in0.0 mm 0.00 in0.0 mm
07:30 AM 56.7°F13.7°C 54.1°F12.3°C 91% 1.2 mph NE1.9 kmh NE 3.5 mph5.6 kmh 29.96 in1014.6 mb - 0.00 in0.0 mm 0.00 in0.0 mm
08:00 AM 57.7°F14.3°C 54.4°F12.4°C 89% Calm Calm -- 29.96 in1014.6 mb - 0.00 in0.0 mm 0.00 in0.0 mm
08:30 AM 58.5°F14.7°C 54.7°F12.6°C 87% 1.2 mph WSW1.9 kmh WSW 2.3 mph3.7 kmh 29.96 in1014.6 mb - 0.00 in0.0 mm 0.00 in0.0 mm
09:00 AM 59.9°F15.5°C 55.4°F13.0°C 85% Calm Calm -- 29.96 in1014.6 mb - 0.00 in0.0 mm 0.00 in0.0 mm
09:30 AM 61.0°F16.1°C 55.1°F12.8°C 81% 1.2 mph SW1.9 kmh SW 3.5 mph5.6 kmh 29.96 in1014.6 mb - 0.00 in0.0 mm 0.00 in0.0 mm
10:00 AM 62.1°F16.7°C 55.9°F13.3°C 80% Calm Calm -- 29.96 in1014.6 mb - 0.00 in0.0 mm 0.00 in0.0 mm
10:30 AM 63.4°F17.4°C 55.3°F12.9°C 75% 1.2 mph E1.9 kmh E 3.5 mph5.6 kmh 29.96 in1014.6 mb - 0.00 in0.0 mm 0.00 in0.0 mm
11:00 AM 63.8°F17.7°C 55.7°F13.2°C 75% 2.3 mph NE3.7 kmh NE 4.6 mph7.4 kmh 29.95 in1014.2 mb - 0.00 in0.0 mm 0.00 in0.0 mm
11:30 AM 65.9°F18.8°C 56.2°F13.4°C 71% 1.2 mph ENE1.9 kmh ENE 4.6 mph7.4 kmh 29.95 in1014.2 mb - 0.00 in0.0 mm 0.00 in0.0 mm
12:00 PM 65.8°F18.8°C 55.3°F12.9°C 69% Calm Calm 1.2 mph1.9 kmh 29.94 in1013.9 mb - 0.00 in0.0 mm 0.00 in0.0 mm
12:30 PM 66.7°F19.3°C 54.9°F12.7°C 66% 2.3 mph E3.7 kmh E 3.5 mph5.6 kmh 29.92 in1013.2 mb - 0.00 in0.0 mm 0.00 in0.0 mm
01:00 PM 69.6°F20.9°C 56.9°F13.8°C 64% Calm Calm 1.2 mph1.9 kmh 29.92 in1013.2 mb - 0.00 in0.0 mm 0.00 in0.0 mm
01:30 PM 69.9°F21.1°C 56.2°F13.4°C 62% Calm Calm 1.2 mph1.9 kmh 29.91 in1012.9 mb - 0.00 in0.0 mm 0.00 in0.0 mm
02:00 PM 69.7°F20.9°C 56.5°F13.6°C 63% 1.2 mph E1.9 kmh E 2.3 mph3.7 kmh 29.90 in1012.5 mb - 0.00 in0.0 mm 0.00 in0.0 mm
02:30 PM 68.9°F20.5°C 56.6°F13.7°C 65% 2.3 mph ENE3.7 kmh ENE 3.5 mph5.6 kmh 29.88 in1011.9 mb - 0.00 in0.0 mm 0.00 in0.0 mm
03:00 PM 65.6°F18.7°C 57.5°F14.2°C 75% 2.3 mph SW3.7 kmh SW 4.6 mph7.4 kmh 29.88 in1011.9 mb - 0.02 in0.5 mm 0.02 in0.5 mm
03:30 PM 59.0°F15.0°C 55.2°F12.9°C 87% 5.8 mph SW9.3 kmh SW 8.1 mph13.0 kmh 29.89 in1012.2 mb - 0.17 in4.3 mm 0.18 in4.6 mm
04:00 PM 58.5°F14.7°C 55.3°F12.9°C 89% Calm Calm -- 29.88 in1011.9 mb - 0.11 in2.8 mm 0.26 in6.6 mm
04:30 PM 62.7°F17.1°C 57.2°F14.0°C 82% Calm Calm -- 29.88 in1011.9 mb - 0.00 in0.0 mm 0.26 in6.6 mm
05:00 PM 62.3°F16.8°C 58.1°F14.5°C 86% Calm Calm -- 29.87 in1011.5 mb - 0.00 in0.0 mm 0.26 in6.6 mm
05:30 PM 63.7°F17.6°C 58.7°F14.8°C 84% Calm Calm -- 29.86 in1011.2 mb - 0.00 in0.0 mm 0.26 in6.6 mm
06:00 PM 62.6°F17.0°C 58.4°F14.7°C 86% Calm Calm 1.2 mph1.9 kmh 29.85 in1010.8 mb - 0.00 in0.0 mm 0.26 in6.6 mm
06:30 PM 60.9°F16.1°C 57.3°F14.1°C 88% Calm Calm 1.2 mph1.9 kmh 29.85 in1010.8 mb - 0.00 in0.0 mm 0.26 in6.6 mm
07:00 PM 60.3°F15.7°C 57.3°F14.1°C 90% Calm Calm -- 29.84 in1010.5 mb - 0.00 in0.0 mm 0.26 in6.6 mm
07:30 PM 59.8°F15.4°C 56.9°F13.8°C 90% Calm Calm -- 29.85 in1010.8 mb - 0.00 in0.0 mm 0.26 in6.6 mm
08:00 PM 59.3°F15.2°C 56.7°F13.7°C 91% Calm Calm -- 29.85 in1010.8 mb - 0.00 in0.0 mm 0.26 in6.6 mm
08:30 PM 59.1°F15.1°C 56.5°F13.6°C 91% Calm Calm -- 29.86 in1011.2 mb - 0.00 in0.0 mm 0.26 in6.6 mm
09:00 PM 59.0°F15.0°C 56.4°F13.6°C 91% Calm Calm -- 29.86 in1011.2 mb - 0.00 in0.0 mm 0.26 in6.6 mm
09:30 PM 58.5°F14.7°C 56.2°F13.4°C 92% Calm Calm -- 29.86 in1011.2 mb - 0.00 in0.0 mm 0.26 in6.6 mm
10:00 PM 58.3°F14.6°C 56.3°F13.5°C 93% Calm Calm -- 29.86 in1011.2 mb - 0.01 in0.3 mm 0.27 in6.9 mm
10:30 PM 58.0°F14.4°C 56.0°F13.3°C 93% Calm Calm 1.2 mph1.9 kmh 29.85 in1010.8 mb - 0.00 in0.0 mm 0.27 in6.9 mm
11:00 PM 58.1°F14.5°C 56.1°F13.4°C 93% Calm Calm -- 29.85 in1010.8 mb - 0.00 in0.0 mm 0.31 in7.9 mm
11:30 PM 57.8°F14.3°C 56.1°F13.4°C 94% Calm Calm -- 29.86 in1011.2 mb - 0.00 in0.0 mm 0.31 in7.9 mm